createdAt,value
2018-02-20T00:00:24.404Z,100237.77
2018-02-20T00:02:52.882Z,100236.67
2018-02-20T00:05:21.308Z,100233.72
2018-02-20T00:07:49.721Z,100241.42
2018-02-20T00:10:18.182Z,100248.30
2018-02-20T00:12:46.612Z,100241.30
2018-02-20T00:15:15.033Z,100248.08
2018-02-20T00:17:43.499Z,100247.08
2018-02-20T00:20:11.919Z,100254.37
2018-02-20T00:22:40.344Z,100246.53
2018-02-20T00:25:08.827Z,100245.63
2018-02-20T00:27:37.263Z,100247.88
2018-02-20T00:30:05.687Z,100246.34
2018-02-20T00:32:34.152Z,100250.19
2018-02-20T00:35:02.562Z,100251.63
2018-02-20T00:37:30.995Z,100244.47
2018-02-20T00:39:59.464Z,100238.41
2018-02-20T00:42:27.902Z,100239.27
2018-02-20T00:44:56.341Z,100236.86
2018-02-20T00:47:24.827Z,100228.00
2018-02-20T00:49:53.256Z,100231.53
2018-02-20T00:52:21.685Z,100228.31
2018-02-20T00:54:50.146Z,100233.02
2018-02-20T00:57:18.570Z,100230.60
2018-02-20T00:59:46.992Z,100231.59
2018-02-20T01:02:15.454Z,100225.36
2018-02-20T01:04:43.874Z,100223.45
2018-02-20T01:07:12.294Z,100223.55
2018-02-20T01:09:40.756Z,100222.64
2018-02-20T01:12:09.174Z,100218.80
2018-02-20T01:14:37.601Z,100220.77
2018-02-20T01:17:06.096Z,100219.45
2018-02-20T01:19:34.531Z,100215.86
2018-02-20T01:22:02.950Z,100215.30
2018-02-20T01:24:31.428Z,100211.78
2018-02-20T01:26:59.860Z,100212.29
2018-02-20T01:29:28.289Z,100212.65
2018-02-20T01:31:56.760Z,100212.86
2018-02-20T01:34:25.181Z,100213.16
2018-02-20T01:36:53.602Z,100209.66
2018-02-20T01:39:22.062Z,100207.42
2018-02-20T01:41:50.492Z,100204.19
2018-02-20T01:44:18.928Z,100202.46
2018-02-20T01:46:47.407Z,100209.66
2018-02-20T01:49:15.818Z,100209.55
2018-02-20T01:51:44.259Z,100206.23
2018-02-20T01:54:12.711Z,100205.30
2018-02-20T01:56:41.130Z,100206.41
2018-02-20T01:59:09.547Z,100206.23
2018-02-20T02:01:37.997Z,100208.41
2018-02-20T02:04:06.428Z,100209.90
2018-02-20T02:06:34.851Z,100209.81
2018-02-20T02:09:03.349Z,100217.39
2018-02-20T02:11:31.787Z,100208.34
2018-02-20T02:14:00.204Z,100210.47
2018-02-20T02:16:28.672Z,100212.05
2018-02-20T02:18:57.104Z,100210.86
2018-02-20T02:21:25.548Z,100209.84
2018-02-20T02:23:54.023Z,100212.77
2018-02-20T02:26:22.441Z,100212.80
2018-02-20T02:28:50.868Z,100212.08
2018-02-20T02:31:19.329Z,100215.61
2018-02-20T02:33:47.757Z,100210.83
2018-02-20T02:36:16.195Z,100213.57
2018-02-20T02:38:44.668Z,100204.28
2018-02-20T02:41:13.100Z,100208.93
2018-02-20T02:43:41.570Z,100210.12
2018-02-20T02:46:10.045Z,100210.34
2018-02-20T02:48:38.470Z,100210.34
2018-02-20T02:51:06.905Z,100205.98
2018-02-20T02:53:35.388Z,100212.94
2018-02-20T02:56:03.833Z,100216.98
2018-02-20T02:58:32.254Z,100222.27
2018-02-20T03:01:00.730Z,100215.89
2018-02-20T03:03:29.157Z,100220.61
2018-02-20T03:05:57.601Z,100225.81
2018-02-20T03:08:26.073Z,100222.33
2018-02-20T03:10:54.499Z,100219.31
2018-02-20T03:13:22.944Z,100222.58
2018-02-20T03:15:51.414Z,100223.30
2018-02-20T03:18:19.843Z,100221.44
2018-02-20T03:20:48.279Z,100220.63
2018-02-20T03:23:16.746Z,100220.27
2018-02-20T03:25:45.180Z,100226.41
2018-02-20T03:28:13.623Z,100223.37
2018-02-20T03:30:42.091Z,100225.27
2018-02-20T03:33:10.524Z,100223.77
2018-02-20T03:35:38.964Z,100229.50
2018-02-20T03:38:07.438Z,100231.83
2018-02-20T03:40:35.873Z,100234.45
2018-02-20T03:43:04.299Z,100232.78
2018-02-20T03:45:32.771Z,100229.70
2018-02-20T03:48:01.193Z,100230.91
2018-02-20T03:50:29.624Z,100232.27
2018-02-20T03:52:58.102Z,100230.93
2018-02-20T03:55:26.536Z,100230.73
2018-02-20T03:57:54.968Z,100229.53
2018-02-20T04:00:23.447Z,100236.52
2018-02-20T04:02:51.897Z,100234.37
2018-02-20T04:05:20.336Z,100239.80
2018-02-20T04:07:48.817Z,100242.53
2018-02-20T04:10:17.238Z,100243.38
2018-02-20T04:12:45.672Z,100242.73
2018-02-20T04:15:14.143Z,100237.45
2018-02-20T04:17:42.568Z,100240.35
2018-02-20T04:20:10.989Z,100243.54
2018-02-20T04:22:39.471Z,100245.56
2018-02-20T04:25:07.904Z,100240.00
2018-02-20T04:27:36.335Z,100248.27
2018-02-20T04:30:04.802Z,100242.01
2018-02-20T04:32:33.247Z,100236.58
2018-02-20T04:35:01.684Z,100244.29
2018-02-20T04:37:30.371Z,100240.11
2018-02-20T04:39:58.805Z,100235.33
2018-02-20T04:42:27.236Z,100232.70
2018-02-20T04:44:55.712Z,100234.50
2018-02-20T04:47:24.130Z,100233.24
2018-02-20T04:49:52.564Z,100237.55
2018-02-20T04:52:21.027Z,100239.30
2018-02-20T04:54:49.461Z,100234.94
2018-02-20T04:57:17.891Z,100238.38
2018-02-20T04:59:46.383Z,100240.87
2018-02-20T05:02:14.822Z,100238.66
2018-02-20T05:04:43.260Z,100235.59
2018-02-20T05:07:11.714Z,100234.61
2018-02-20T05:09:40.147Z,100245.50
2018-02-20T05:12:08.570Z,100240.98
2018-02-20T05:14:37.281Z,100242.32
2018-02-20T05:17:05.711Z,100242.73
2018-02-20T05:19:34.129Z,100245.37
2018-02-20T05:22:02.598Z,100244.41
2018-02-20T05:24:31.026Z,100248.47
2018-02-20T05:26:59.460Z,100246.89
2018-02-20T05:29:27.917Z,100246.03
2018-02-20T05:31:56.369Z,100254.64
2018-02-20T05:34:24.789Z,100249.89
2018-02-20T05:36:53.251Z,100250.25
2018-02-20T05:39:21.678Z,100246.17
2018-02-20T05:41:50.116Z,100250.98
2018-02-20T05:44:18.613Z,100248.05
2018-02-20T05:46:47.039Z,100251.79
2018-02-20T05:49:15.474Z,100252.30
2018-02-20T05:51:43.941Z,100257.09
2018-02-20T05:54:12.363Z,100254.44
2018-02-20T05:56:40.802Z,100252.77
2018-02-20T05:59:09.261Z,100255.22
2018-02-20T06:01:37.699Z,100257.69
2018-02-20T06:04:06.152Z,100254.30
2018-02-20T06:06:34.669Z,100257.17
2018-02-20T06:09:03.136Z,100256.90
2018-02-20T06:11:31.567Z,100257.95
2018-02-20T06:14:00.026Z,100259.07
2018-02-20T06:16:28.458Z,100263.59
2018-02-20T06:18:56.888Z,100260.29
2018-02-20T06:21:25.374Z,100261.06
2018-02-20T06:23:53.795Z,100263.02
2018-02-20T06:26:22.213Z,100261.31
2018-02-20T06:28:50.674Z,100261.52
2018-02-20T06:31:19.099Z,100262.88
2018-02-20T06:33:47.513Z,100260.54
2018-02-20T06:36:15.974Z,100257.72
2018-02-20T06:38:44.408Z,100269.05
2018-02-20T06:41:12.834Z,100267.30
2018-02-20T06:43:41.293Z,100275.03
2018-02-20T06:46:09.715Z,100271.27
2018-02-20T06:48:38.144Z,100270.53
2018-02-20T06:51:06.606Z,100275.87
2018-02-20T06:53:35.021Z,100268.44
2018-02-20T06:56:03.438Z,100265.47
2018-02-20T06:58:31.906Z,100272.38
2018-02-20T07:01:00.330Z,100278.91
2018-02-20T07:03:28.750Z,100276.32
2018-02-20T07:05:57.231Z,100273.38
2018-02-20T07:08:25.676Z,100275.41
2018-02-20T07:10:54.112Z,100275.91
2018-02-20T07:13:22.588Z,100275.12
2018-02-20T07:15:51.013Z,100271.47
2018-02-20T07:18:19.430Z,100266.88
2018-02-20T07:20:47.903Z,100273.44
2018-02-20T07:23:16.340Z,100271.73
2018-02-20T07:25:44.776Z,100270.11
2018-02-20T07:28:13.259Z,100268.07
2018-02-20T07:30:41.686Z,100276.77
2018-02-20T07:33:10.110Z,100280.90
2018-02-20T07:35:38.574Z,100280.40
2018-02-20T07:38:07.003Z,100282.70
2018-02-20T07:40:35.439Z,100285.05
2018-02-20T07:43:03.902Z,100286.16
2018-02-20T07:45:32.343Z,100291.22
2018-02-20T07:48:00.773Z,100289.55
2018-02-20T07:50:29.237Z,100289.09
2018-02-20T07:52:57.667Z,100290.52
2018-02-20T07:55:26.104Z,100288.72
2018-02-20T07:57:54.577Z,100287.27
2018-02-20T08:00:23.020Z,100285.53
2018-02-20T08:02:51.481Z,100284.61
2018-02-20T08:05:19.942Z,100290.40
2018-02-20T08:07:48.365Z,100288.36
2018-02-20T08:10:16.789Z,100299.06
2018-02-20T08:12:45.266Z,100293.45
2018-02-20T08:15:13.682Z,100298.37
2018-02-20T08:17:42.116Z,100298.84
2018-02-20T08:20:10.587Z,100298.11
2018-02-20T08:22:39.015Z,100303.53
2018-02-20T08:25:07.453Z,100301.70
2018-02-20T08:27:35.934Z,100306.56
2018-02-20T08:30:04.372Z,100303.62
2018-02-20T08:32:32.809Z,100305.39
2018-02-20T08:35:01.291Z,100296.22
2018-02-20T08:37:29.720Z,100301.03
2018-02-20T08:39:58.147Z,100293.74
2018-02-20T08:42:26.613Z,100296.08
2018-02-20T08:44:55.040Z,100293.53
2018-02-20T08:47:23.454Z,100292.07
2018-02-20T08:49:51.925Z,100291.33
2018-02-20T08:52:20.369Z,100295.80
2018-02-20T08:54:48.799Z,100294.34
2018-02-20T08:57:17.274Z,100285.62
2018-02-20T08:59:45.700Z,100295.19
2018-02-20T09:02:14.126Z,100290.33
2018-02-20T09:04:42.586Z,100282.95
2018-02-20T09:07:11.041Z,100283.73
2018-02-20T09:09:39.480Z,100284.16
2018-02-20T09:12:07.967Z,100280.35
2018-02-20T09:14:36.410Z,100287.27
2018-02-20T09:17:04.834Z,100286.73
2018-02-20T09:19:33.301Z,100286.66
2018-02-20T09:22:01.745Z,100281.22
2018-02-20T09:24:30.184Z,100286.27
2018-02-20T09:26:58.665Z,100279.76
2018-02-20T09:29:27.097Z,100282.72
2018-02-20T09:31:55.527Z,100283.54
2018-02-20T09:34:24.006Z,100287.77
2018-02-20T09:36:52.442Z,100289.17
2018-02-20T09:39:20.912Z,100282.53
2018-02-20T09:41:49.396Z,100278.06
2018-02-20T09:44:17.834Z,100276.36
2018-02-20T09:46:46.283Z,100273.32
2018-02-20T09:49:14.764Z,100273.59
2018-02-20T09:51:43.201Z,100269.04
2018-02-20T09:54:11.644Z,100265.76
2018-02-20T09:56:40.128Z,100269.39
2018-02-20T09:59:08.586Z,100276.68
2018-02-20T10:01:37.022Z,100272.16
2018-02-20T10:04:05.510Z,100273.72
2018-02-20T10:06:33.947Z,100271.45
2018-02-20T10:09:02.388Z,100273.62
2018-02-20T10:11:30.881Z,100273.31
2018-02-20T10:13:59.320Z,100275.64
2018-02-20T10:16:27.741Z,100273.97
2018-02-20T10:18:56.256Z,100269.21
2018-02-20T10:21:24.717Z,100266.91
2018-02-20T10:23:53.157Z,100267.70
2018-02-20T10:26:21.623Z,100271.75
2018-02-20T10:28:50.045Z,100273.88
2018-02-20T10:31:18.470Z,100271.01
2018-02-20T10:33:46.948Z,100270.22
2018-02-20T10:36:15.368Z,100275.45
2018-02-20T10:38:43.807Z,100265.98
2018-02-20T10:41:12.304Z,100277.05
2018-02-20T10:43:40.751Z,100271.04
2018-02-20T10:46:09.188Z,100273.59
2018-02-20T10:48:37.646Z,100271.07
2018-02-20T10:51:06.088Z,100271.95
2018-02-20T10:53:34.529Z,100268.81
2018-02-20T10:56:03.065Z,100271.14
2018-02-20T10:58:31.506Z,100271.89
2018-02-20T11:00:59.952Z,100277.40
2018-02-20T11:03:28.440Z,100277.61
2018-02-20T11:05:57.172Z,100273.75
2018-02-20T11:08:25.600Z,100271.52
2018-02-20T11:10:54.116Z,100278.86
2018-02-20T11:13:22.583Z,100275.50
2018-02-20T11:15:51.014Z,100276.33
2018-02-20T11:18:19.510Z,100280.10
2018-02-20T11:20:47.968Z,100284.87
2018-02-20T11:23:16.401Z,100279.19
2018-02-20T11:25:44.874Z,100278.81
2018-02-20T11:28:13.324Z,100274.55
2018-02-20T11:30:41.787Z,100281.27
2018-02-20T11:33:10.279Z,100278.69
2018-02-20T11:35:38.709Z,100274.00
2018-02-20T11:38:07.148Z,100275.28
2018-02-20T11:40:35.616Z,100274.75
2018-02-20T11:43:04.053Z,100279.90
2018-02-20T11:45:32.493Z,100272.89
2018-02-20T11:48:01.191Z,100273.39
2018-02-20T11:50:29.640Z,100278.28
2018-02-20T11:52:58.096Z,100267.80
2018-02-20T11:55:26.570Z,100269.66
2018-02-20T11:57:55.034Z,100272.73
2018-02-20T12:00:23.470Z,100274.02
2018-02-20T12:02:51.950Z,100278.98
2018-02-20T12:05:20.379Z,100277.66
2018-02-20T12:07:48.820Z,100285.45
2018-02-20T12:10:17.318Z,100279.08
2018-02-20T12:12:45.772Z,100277.00
2018-02-20T12:15:14.208Z,100281.55
2018-02-20T12:17:42.697Z,100273.14
2018-02-20T12:20:11.152Z,100273.97
2018-02-20T12:22:39.605Z,100273.52
2018-02-20T12:25:08.093Z,100282.42
2018-02-20T12:27:36.538Z,100286.19
2018-02-20T12:30:04.979Z,100283.41
2018-02-20T12:32:33.467Z,100280.27
2018-02-20T12:35:01.913Z,100285.06
2018-02-20T12:37:30.373Z,100279.84
2018-02-20T12:39:58.873Z,100282.45
2018-02-20T12:42:27.306Z,100274.59
2018-02-20T12:44:55.768Z,100278.53
2018-02-20T12:47:24.259Z,100278.86
2018-02-20T12:49:52.706Z,100281.59
2018-02-20T12:52:21.169Z,100281.30
2018-02-20T12:54:49.637Z,100281.80
2018-02-20T12:57:18.092Z,100286.16
2018-02-20T12:59:46.528Z,100278.69
2018-02-20T13:02:15.076Z,100277.58
2018-02-20T13:04:43.487Z,100277.16
2018-02-20T13:07:11.937Z,100277.78
2018-02-20T13:09:40.415Z,100274.64
2018-02-20T13:12:08.878Z,100272.89
2018-02-20T13:14:37.346Z,100278.16
2018-02-20T13:17:05.838Z,100279.81
2018-02-20T13:19:34.281Z,100276.75
2018-02-20T13:22:02.743Z,100273.43
2018-02-20T13:24:31.244Z,100277.53
2018-02-20T13:26:59.689Z,100283.21
2018-02-20T13:29:28.139Z,100285.48
2018-02-20T13:31:56.634Z,100280.85
2018-02-20T13:34:25.067Z,100277.98
2018-02-20T13:36:53.512Z,100279.03
2018-02-20T13:39:22.000Z,100279.05
2018-02-20T13:41:50.451Z,100277.91
2018-02-20T13:44:18.881Z,100280.77
2018-02-20T13:46:47.341Z,100280.70
2018-02-20T13:49:15.780Z,100288.49
2018-02-20T13:51:44.222Z,100288.07
2018-02-20T13:54:12.705Z,100291.51
2018-02-20T13:56:41.204Z,100300.97
2018-02-20T13:59:09.651Z,100301.95
2018-02-20T14:01:38.119Z,100294.32
2018-02-20T14:04:06.561Z,100295.46
2018-02-20T14:06:34.997Z,100300.72
2018-02-20T14:09:03.549Z,100304.17
2018-02-20T14:11:31.996Z,100300.39
2018-02-20T14:14:00.432Z,100308.16
2018-02-20T14:16:28.931Z,100306.08
2018-02-20T14:18:57.363Z,100313.83
2018-02-20T14:21:25.795Z,100308.91
2018-02-20T14:23:54.254Z,100314.25
2018-02-20T14:26:22.704Z,100310.95
2018-02-20T14:28:51.156Z,100310.38
2018-02-20T14:31:19.621Z,100310.80
2018-02-20T14:33:48.072Z,100313.83
2018-02-20T14:36:16.498Z,100312.92
2018-02-20T14:38:44.987Z,100315.16
2018-02-20T14:41:13.437Z,100319.45
2018-02-20T14:43:41.872Z,100320.02
2018-02-20T14:46:10.354Z,100320.39
2018-02-20T14:48:38.821Z,100329.39
2018-02-20T14:51:07.265Z,100323.83
2018-02-20T14:53:35.748Z,100319.19
2018-02-20T14:56:04.206Z,100323.56
2018-02-20T14:58:32.650Z,100326.62
2018-02-20T15:01:01.119Z,100329.19
2018-02-20T15:03:29.571Z,100325.37
2018-02-20T15:05:58.006Z,100327.58
2018-02-20T15:08:26.527Z,100327.91
2018-02-20T15:10:54.970Z,100336.58
2018-02-20T15:13:23.406Z,100335.70
2018-02-20T15:15:51.880Z,100338.42
2018-02-20T15:18:20.343Z,100341.63
2018-02-20T15:20:48.776Z,100336.87
2018-02-20T15:23:17.250Z,100339.20
2018-02-20T15:25:45.692Z,100344.89
2018-02-20T15:28:14.151Z,100346.70
2018-02-20T15:30:42.653Z,100348.05
2018-02-20T15:33:11.078Z,100352.75
2018-02-20T15:35:39.528Z,100352.58
2018-02-20T15:38:08.013Z,100356.48
2018-02-20T15:40:36.459Z,100351.59
2018-02-20T15:43:04.912Z,100360.33
2018-02-20T15:45:33.376Z,100357.83
2018-02-20T15:48:01.812Z,100358.22
2018-02-20T15:50:30.271Z,100367.81
2018-02-20T15:52:58.792Z,100367.53
2018-02-20T15:55:27.230Z,100372.37
2018-02-20T15:57:55.651Z,100376.06
2018-02-20T16:00:24.136Z,100380.95
2018-02-20T16:02:52.578Z,100377.83
2018-02-20T16:05:21.038Z,100377.03
2018-02-20T16:07:49.514Z,100376.23
2018-02-20T16:10:17.946Z,100386.23
2018-02-20T16:12:46.363Z,100391.83
2018-02-20T16:15:14.876Z,100396.52
2018-02-20T16:17:43.309Z,100399.30
2018-02-20T16:20:11.759Z,100394.88
2018-02-20T16:22:40.277Z,100397.52
2018-02-20T16:25:08.710Z,100403.22
2018-02-20T16:27:37.177Z,100409.30
2018-02-20T16:30:05.673Z,100410.55
2018-02-20T16:32:34.123Z,100419.50
2018-02-20T16:35:02.561Z,100417.14
2018-02-20T16:37:31.060Z,100422.84
2018-02-20T16:39:59.500Z,100417.66
2018-02-20T16:42:27.951Z,100421.53
2018-02-20T16:44:56.428Z,100420.96
2018-02-20T16:47:24.865Z,100414.95
2018-02-20T16:49:53.291Z,100423.33
2018-02-20T16:52:21.765Z,100421.67
2018-02-20T16:54:50.198Z,100431.00
2018-02-20T16:57:18.636Z,100425.44
2018-02-20T16:59:47.116Z,100426.94
2018-02-20T17:02:15.565Z,100428.84
2018-02-20T17:04:44.016Z,100430.41
2018-02-20T17:07:12.529Z,100431.26
2018-02-20T17:09:40.983Z,100431.91
2018-02-20T17:12:09.482Z,100435.97
2018-02-20T17:14:37.946Z,100447.75
2018-02-20T17:17:06.369Z,100447.40
2018-02-20T17:19:34.798Z,100452.55
2018-02-20T17:22:03.268Z,100453.11
2018-02-20T17:24:31.704Z,100455.06
2018-02-20T17:27:00.136Z,100459.77
2018-02-20T17:29:28.616Z,100465.92
2018-02-20T17:31:57.048Z,100470.05
2018-02-20T17:34:25.484Z,100464.19
2018-02-20T17:36:53.960Z,100473.59
2018-02-20T17:39:22.400Z,100477.64
2018-02-20T17:41:50.845Z,100471.89
2018-02-20T17:44:19.320Z,100469.58
2018-02-20T17:46:47.784Z,100467.87
2018-02-20T17:49:17.114Z,100473.53
2018-02-20T17:51:45.617Z,100466.97
2018-02-20T17:54:14.058Z,100465.14
2018-02-20T17:56:42.485Z,100468.84
2018-02-20T17:59:10.959Z,100476.16
2018-02-20T18:01:39.407Z,100478.55
2018-02-20T18:04:07.836Z,100478.90
2018-02-20T18:06:36.297Z,100479.41
2018-02-20T18:09:04.978Z,100477.70
2018-02-20T18:11:33.406Z,100489.36
2018-02-20T18:14:01.956Z,100488.19
2018-02-20T18:16:30.584Z,100489.08
2018-02-20T18:18:59.025Z,100501.45
2018-02-20T18:21:27.492Z,100504.94
2018-02-20T18:23:55.906Z,100507.66
2018-02-20T18:26:24.344Z,100512.29
2018-02-20T18:28:53.168Z,100509.80
2018-02-20T18:31:21.598Z,100521.22
2018-02-20T18:33:50.022Z,100518.32
2018-02-20T18:36:18.496Z,100525.48
2018-02-20T18:38:46.938Z,100522.16
2018-02-20T18:41:15.392Z,100525.73
2018-02-20T18:43:43.900Z,100533.05
2018-02-20T18:46:12.335Z,100535.95
2018-02-20T18:48:40.775Z,100539.55
2018-02-20T18:51:09.254Z,100539.97
2018-02-20T18:53:37.683Z,100549.64
2018-02-20T18:56:06.124Z,100546.63
2018-02-20T18:58:34.684Z,100550.09
2018-02-20T19:01:03.118Z,100549.70
2018-02-20T19:03:31.558Z,100551.70
2018-02-20T19:06:00.056Z,100549.97
2018-02-20T19:08:28.500Z,100558.47
2018-02-20T19:10:56.938Z,100559.61
2018-02-20T19:13:25.416Z,100554.13
2018-02-20T19:15:53.845Z,100551.79
2018-02-20T19:18:22.275Z,100559.06
2018-02-20T19:20:51.704Z,100563.05
2018-02-20T19:23:20.147Z,100561.07
2018-02-20T19:25:48.585Z,100569.78
2018-02-20T19:28:17.065Z,100565.83
2018-02-20T19:30:45.518Z,100560.71
2018-02-20T19:33:13.950Z,100568.47
2018-02-20T19:35:42.427Z,100572.55
2018-02-20T19:38:10.859Z,100576.70
2018-02-20T19:40:39.326Z,100577.81
2018-02-20T19:43:07.796Z,100579.05
2018-02-20T19:45:36.231Z,100575.78
2018-02-20T19:48:04.695Z,100580.09
2018-02-20T19:50:33.177Z,100587.43
2018-02-20T19:53:01.625Z,100585.54
2018-02-20T19:55:30.078Z,100590.72
2018-02-20T19:57:58.575Z,100588.15
2018-02-20T20:00:27.037Z,100581.86
2018-02-20T20:02:55.488Z,100581.47
2018-02-20T20:05:23.978Z,100579.37
2018-02-20T20:07:52.414Z,100583.23
2018-02-20T20:10:20.842Z,100585.72
2018-02-20T20:12:49.346Z,100587.76
2018-02-20T20:15:17.786Z,100587.67
2018-02-20T20:17:46.230Z,100586.66
2018-02-20T20:20:14.904Z,100586.36
2018-02-20T20:22:43.353Z,100590.22
2018-02-20T20:25:11.811Z,100590.94
2018-02-20T20:27:40.319Z,100588.06
2018-02-20T20:30:08.767Z,100592.34
2018-02-20T20:32:37.198Z,100596.36
2018-02-20T20:35:05.667Z,100597.44
2018-02-20T20:37:34.117Z,100606.52
2018-02-20T20:40:02.558Z,100602.50
2018-02-20T20:42:31.092Z,100598.34
2018-02-20T20:44:59.541Z,100598.64
2018-02-20T20:47:27.974Z,100604.72
2018-02-20T20:49:56.459Z,100604.62
2018-02-20T20:52:24.903Z,100605.22
2018-02-20T20:54:53.338Z,100607.67
2018-02-20T20:57:21.832Z,100603.59
2018-02-20T20:59:50.279Z,100607.42
2018-02-20T21:02:18.740Z,100601.77
2018-02-20T21:04:47.232Z,100605.08
2018-02-20T21:07:15.670Z,100605.92
2018-02-20T21:09:44.120Z,100611.27
2018-02-20T21:12:12.597Z,100607.64
2018-02-20T21:14:41.055Z,100605.91
2018-02-20T21:17:09.504Z,100608.66
2018-02-20T21:19:38.022Z,100608.25
2018-02-20T21:22:06.464Z,100612.38
2018-02-20T21:24:34.920Z,100607.50
2018-02-20T21:27:03.433Z,100609.55
2018-02-20T21:29:31.871Z,100607.03
2018-02-20T21:32:00.314Z,100608.77
2018-02-20T21:34:28.788Z,100605.44
2018-02-20T21:36:57.215Z,100615.46
2018-02-20T21:39:25.638Z,100610.90
2018-02-20T21:41:54.116Z,100616.05
2018-02-20T21:44:22.553Z,100610.37
2018-02-20T21:46:50.997Z,100613.05
2018-02-20T21:49:19.477Z,100612.80
2018-02-20T21:51:47.894Z,100617.84
2018-02-20T21:54:16.320Z,100625.55
2018-02-20T21:56:44.812Z,100631.45
2018-02-20T21:59:13.299Z,100630.91
2018-02-20T22:01:41.755Z,100632.81
2018-02-20T22:04:10.240Z,100638.31
2018-02-20T22:06:38.692Z,100637.96
2018-02-20T22:09:07.144Z,100640.30
2018-02-20T22:11:35.618Z,100646.48
2018-02-20T22:14:04.071Z,100647.42
2018-02-20T22:16:32.509Z,100649.82
2018-02-20T22:19:00.985Z,100652.38
2018-02-20T22:21:29.428Z,100665.16
2018-02-20T22:23:57.873Z,100664.75
2018-02-20T22:26:26.345Z,100668.33
2018-02-20T22:28:54.792Z,100672.90
2018-02-20T22:31:23.242Z,100674.48
2018-02-20T22:33:51.741Z,100680.84
2018-02-20T22:36:20.187Z,100683.30
2018-02-20T22:38:48.606Z,100692.13
2018-02-20T22:41:17.083Z,100695.13
2018-02-20T22:43:45.528Z,100695.55
2018-02-20T22:46:13.954Z,100698.52
2018-02-20T22:48:42.512Z,100700.27
2018-02-20T22:51:10.948Z,100703.52
2018-02-20T22:53:39.365Z,100702.47
2018-02-20T22:56:07.844Z,100701.16
2018-02-20T22:58:36.270Z,100704.47
2018-02-20T23:01:04.711Z,100712.04
2018-02-20T23:03:33.165Z,100708.75
2018-02-20T23:06:01.603Z,100715.73
2018-02-20T23:08:30.032Z,100704.46
2018-02-20T23:10:58.501Z,100703.77
2018-02-20T23:13:26.927Z,100705.33
2018-02-20T23:15:55.365Z,100709.27
2018-02-20T23:18:24.804Z,100710.09
2018-02-20T23:20:53.227Z,100715.63
2018-02-20T23:23:21.647Z,100718.83
2018-02-20T23:25:50.117Z,100728.16
2018-02-20T23:28:18.556Z,100732.15
2018-02-20T23:30:46.995Z,100731.67
2018-02-20T23:33:15.461Z,100727.31
2018-02-20T23:35:43.929Z,100729.94
2018-02-20T23:38:12.345Z,100728.65
2018-02-20T23:40:40.805Z,100728.03
2018-02-20T23:43:09.235Z,100724.87
2018-02-20T23:45:37.668Z,100727.36
2018-02-20T23:48:06.146Z,100734.16
2018-02-20T23:50:34.564Z,100739.88
2018-02-20T23:53:02.987Z,100745.16
2018-02-20T23:55:31.457Z,100755.99
2018-02-20T23:57:59.888Z,100763.53
